Time;durP1;ratioP1;P1;durP2;ratioP2;P2;SDS_P1;SDS_P2;PMS_P1;PMS_P2;Temp;Humidity;BMP_temperature;BMP_pressure;BME280_temperature;BME280_humidity;BME280_pressure;Samples;Min_cycle;Max_cycle;Signal;HPM_P1;HPM_P2
2022/12/11 00:00:24;;;;;;;8.07;4.17;;;;;;;;;;5044936;28;20279;-90
2022/12/11 00:02:53;;;;;;;7.43;3.03;;;;;;;;;;5032408;28;20211;-91
2022/12/11 00:05:22;;;;;;;10.37;5.47;;;;;;;;;;5032232;28;20207;-92
2022/12/11 00:07:50;;;;;;;10.00;2.97;;;;;;;;;;5051511;28;20219;-90
2022/12/11 00:10:18;;;;;;;8.47;3.87;;;;;;;;;;5034677;28;20255;-89
2022/12/11 00:12:47;;;;;;;8.57;3.50;;;;;;;;;;5051984;28;20206;-90
2022/12/11 00:15:17;;;;;;;5.80;3.23;;;;;;;;;;5051619;28;20217;-89
2022/12/11 00:17:49;;;;;;;4.53;2.63;;;;;;;;;;5033815;28;20290;-89
2022/12/11 00:20:20;;;;;;;5.47;3.27;;;;;;;;;;5035350;28;20214;-90
2022/12/11 00:22:48;;;;;;;7.93;3.20;;;;;;;;;;5041572;28;20200;-91
2022/12/11 00:25:15;;;;;;;9.17;3.67;;;;;;;;;;5034393;28;20221;-91
2022/12/11 00:27:43;;;;;;;7.73;2.70;;;;;;;;;;5034610;28;20628;-90
2022/12/11 00:30:12;;;;;;;8.03;2.83;;;;;;;;;;5037104;28;20697;-90
2022/12/11 00:32:43;;;;;;;5.27;2.90;;;;;;;;;;5049063;28;20217;-91
2022/12/11 00:35:11;;;;;;;6.83;2.70;;;;;;;;;;5051579;28;20660;-91
2022/12/11 00:37:39;;;;;;;7.10;2.53;;;;;;;;;;5051622;28;20320;-90
2022/12/11 00:40:08;;;;;;;9.53;3.87;;;;;;;;;;5051775;28;20209;-90
2022/12/11 00:42:36;;;;;;;4.93;2.60;;;;;;;;;;5034057;28;20719;-93
2022/12/11 00:45:04;;;;;;;7.87;2.70;;;;;;;;;;5051850;28;20209;-90
2022/12/11 00:47:32;;;;;;;10.03;3.43;;;;;;;;;;5051634;28;20209;-89
2022/12/11 00:50:01;;;;;;;7.00;2.30;;;;;;;;;;5049378;28;20209;-90
2022/12/11 00:52:30;;;;;;;10.50;4.60;;;;;;;;;;5022557;28;20206;-91
2022/12/11 00:54:57;;;;;;;4.80;2.73;;;;;;;;;;5042764;28;20759;-91
2022/12/11 00:57:26;;;;;;;9.10;3.03;;;;;;;;;;5052164;28;20245;-91
2022/12/11 00:59:54;;;;;;;8.87;2.90;;;;;;;;;;5034639;28;20219;-92
2022/12/11 01:02:22;;;;;;;5.60;2.83;;;;;;;;;;5040974;28;20259;-90
2022/12/11 01:04:51;;;;;;;9.37;3.03;;;;;;;;;;5034261;28;20676;-91
2022/12/11 01:07:20;;;;;;;10.40;3.10;;;;;;;;;;5051697;28;20210;-91
2022/12/11 01:12:37;;;;;;;8.77;2.67;;;;;;;;;;5049029;28;20271;-90
2022/12/11 01:15:07;;;;;;;11.87;3.63;;;;;;;;;;5051597;28;20262;-91
2022/12/11 01:17:35;;;;;;;5.37;3.03;;;;;;;;;;5051699;28;20240;-90
2022/12/11 01:20:04;;;;;;;11.00;3.30;;;;;;;;;;5050647;28;20617;-91
2022/12/11 01:22:33;;;;;;;11.33;4.60;;;;;;;;;;5036572;28;20277;-92
2022/12/11 01:25:04;;;;;;;11.33;3.47;;;;;;;;;;5051016;28;20213;-91
2022/12/11 01:27:32;;;;;;;8.73;3.73;;;;;;;;;;5027868;28;20209;-91
2022/12/11 01:30:00;;;;;;;11.07;3.63;;;;;;;;;;5048036;28;20212;-91
2022/12/11 01:32:28;;;;;;;6.87;3.70;;;;;;;;;;5040394;28;20703;-92
2022/12/11 01:34:56;;;;;;;11.10;4.37;;;;;;;;;;5055486;28;20293;-92
2022/12/11 01:37:24;;;;;;;13.77;3.33;;;;;;;;;;5054993;28;20295;-92
2022/12/11 01:39:54;;;;;;;10.30;3.33;;;;;;;;;;5055263;28;20209;-91
2022/12/11 01:42:24;;;;;;;5.73;2.87;;;;;;;;;;5038079;28;20643;-91
2022/12/11 01:45:21;;;;;;;10.87;3.77;;;;;;;;;;5054820;28;20212;-91
2022/12/11 01:47:49;;;;;;;4.60;2.97;;;;;;;;;;5053040;28;20267;-92
2022/12/11 01:50:18;;;;;;;7.30;4.07;;;;;;;;;;5040803;28;20610;-93
2022/12/11 01:52:47;;;;;;;16.93;6.33;;;;;;;;;;5034724;28;20210;-92
2022/12/11 01:55:17;;;;;;;12.13;4.77;;;;;;;;;;5017678;28;20214;-93
2022/12/11 01:57:50;;;;;;;9.50;5.00;;;;;;;;;;5034826;28;20321;-91
2022/12/11 02:00:23;;;;;;;11.20;2.87;;;;;;;;;;5023930;28;20205;-92
2022/12/11 02:02:51;;;;;;;6.80;3.33;;;;;;;;;;5052354;28;20213;-91
2022/12/11 02:05:19;;;;;;;24.80;10.63;;;;;;;;;;5048999;28;20207;-93
2022/12/11 02:07:49;;;;;;;4.67;2.67;;;;;;;;;;5053318;28;20224;-91
2022/12/11 02:10:20;;;;;;;6.70;2.50;;;;;;;;;;5037600;28;20290;-92
2022/12/11 02:12:57;;;;;;;9.73;2.60;;;;;;;;;;5042884;28;20591;-91
2022/12/11 02:15:33;;;;;;;7.83;2.33;;;;;;;;;;5022398;28;20676;-91
2022/12/11 02:18:10;;;;;;;10.37;3.13;;;;;;;;;;5046736;28;20244;-91
2022/12/11 02:20:42;;;;;;;8.33;2.93;;;;;;;;;;5036853;28;20205;-92
2022/12/11 02:23:35;;;;;;;7.70;2.17;;;;;;;;;;5041272;28;20700;-91
2022/12/11 02:26:13;;;;;;;9.00;3.07;;;;;;;;;;5025388;28;20233;-92
2022/12/11 02:28:45;;;;;;;6.33;2.37;;;;;;;;;;5028115;28;20202;-92
2022/12/11 02:31:21;;;;;;;6.03;2.67;;;;;;;;;;5043255;28;20220;-92
2022/12/11 02:33:54;;;;;;;4.23;1.93;;;;;;;;;;5054319;28;20201;-92
2022/12/11 02:36:24;;;;;;;8.17;2.37;;;;;;;;;;5047428;28;20651;-92
2022/12/11 02:42:15;;;;;;;7.80;2.10;;;;;;;;;;5032702;28;20204;-93
2022/12/11 02:44:46;;;;;;;4.30;2.07;;;;;;;;;;5032547;28;20218;-92
2022/12/11 02:47:16;;;;;;;4.43;1.77;;;;;;;;;;5039594;28;20221;-95
2022/12/11 02:49:46;;;;;;;4.97;1.60;;;;;;;;;;5051695;28;20597;-93
2022/12/11 02:52:15;;;;;;;6.07;2.23;;;;;;;;;;5053412;28;20237;-93
2022/12/11 02:54:43;;;;;;;4.00;2.03;;;;;;;;;;5046758;28;20347;-93
2022/12/11 02:57:14;;;;;;;5.53;1.93;;;;;;;;;;5054103;28;20609;-95
2022/12/11 02:59:46;;;;;;;7.70;2.37;;;;;;;;;;5035942;28;20209;-94
2022/12/11 03:02:15;;;;;;;6.33;2.83;;;;;;;;;;5053315;28;20210;-93
2022/12/11 03:04:43;;;;;;;4.03;1.80;;;;;;;;;;5038228;28;20230;-93
2022/12/11 03:07:14;;;;;;;3.10;1.77;;;;;;;;;;5039497;28;20215;-92
2022/12/11 03:09:44;;;;;;;5.90;2.03;;;;;;;;;;5033625;28;20206;-93
2022/12/11 03:12:13;;;;;;;6.90;2.20;;;;;;;;;;5039949;28;20252;-96
2022/12/11 03:14:41;;;;;;;8.83;1.77;;;;;;;;;;5053428;28;20213;-94
2022/12/11 03:17:14;;;;;;;6.60;2.00;;;;;;;;;;5046756;28;20222;-93
2022/12/11 03:19:45;;;;;;;4.13;1.83;;;;;;;;;;5029414;28;20213;-95
2022/12/11 03:22:23;;;;;;;6.30;2.53;;;;;;;;;;5052712;28;20262;-93
2022/12/11 03:24:52;;;;;;;5.13;1.97;;;;;;;;;;5050884;28;20232;-92
2022/12/11 03:27:26;;;;;;;5.87;1.97;;;;;;;;;;5053172;28;20205;-91
2022/12/11 03:30:00;;;;;;;4.30;2.10;;;;;;;;;;5047509;28;20216;-92
2022/12/11 03:32:32;;;;;;;4.27;2.17;;;;;;;;;;5052601;28;20236;-94
2022/12/11 03:35:04;;;;;;;4.93;2.70;;;;;;;;;;5052702;28;20766;-92
2022/12/11 03:37:37;;;;;;;4.77;2.10;;;;;;;;;;5032697;28;20969;-92
2022/12/11 03:40:11;;;;;;;10.43;2.63;;;;;;;;;;5053861;28;20612;-93
2022/12/11 03:42:39;;;;;;;13.70;4.10;;;;;;;;;;5052747;28;20644;-93
2022/12/11 03:45:09;;;;;;;6.43;2.33;;;;;;;;;;5055534;28;20209;-93
2022/12/11 03:47:39;;;;;;;8.70;2.83;;;;;;;;;;5034808;28;20203;-92
2022/12/11 03:50:09;;;;;;;6.73;1.97;;;;;;;;;;5035060;28;20209;-93
2022/12/11 03:52:42;;;;;;;7.10;2.47;;;;;;;;;;5052103;28;20237;-94
2022/12/11 03:55:15;;;;;;;6.90;2.80;;;;;;;;;;5035323;28;20213;-93
2022/12/11 03:57:43;;;;;;;8.67;5.17;;;;;;;;;;5042707;28;20229;-92
2022/12/11 04:00:14;;;;;;;11.33;3.27;;;;;;;;;;5058414;28;20224;-92
2022/12/11 04:02:44;;;;;;;7.03;2.97;;;;;;;;;;5055662;28;20692;-94
2022/12/11 04:05:18;;;;;;;11.97;5.83;;;;;;;;;;5038955;28;20216;-93
2022/12/11 04:07:48;;;;;;;12.50;5.20;;;;;;;;;;5052413;28;20202;-94
2022/12/11 04:10:17;;;;;;;10.00;3.23;;;;;;;;;;5036241;28;20213;-94
2022/12/11 04:12:45;;;;;;;7.20;4.20;;;;;;;;;;5052030;28;20217;-94
2022/12/11 04:15:13;;;;;;;3.57;2.37;;;;;;;;;;5052259;28;20288;-95
2022/12/11 04:26:08;;;;;;;8.10;3.30;;;;;;;;;;5052496;28;20221;-93
2022/12/11 04:28:36;;;;;;;10.03;3.13;;;;;;;;;;5052190;28;20301;-93
2022/12/11 04:31:04;;;;;;;19.43;9.43;;;;;;;;;;5051885;28;20263;-92
2022/12/11 04:33:33;;;;;;;9.07;2.83;;;;;;;;;;5051700;28;20216;-93
2022/12/11 04:36:05;;;;;;;5.97;2.30;;;;;;;;;;5052238;28;20220;-93
2022/12/11 04:38:34;;;;;;;18.43;7.83;;;;;;;;;;5037401;28;20230;-93
2022/12/11 04:41:03;;;;;;;7.23;3.47;;;;;;;;;;5051995;28;20212;-93
2022/12/11 04:43:31;;;;;;;9.83;2.93;;;;;;;;;;5045355;28;20216;-93
2022/12/11 04:46:02;;;;;;;14.80;4.17;;;;;;;;;;5052098;28;20209;-93
2022/12/11 04:48:30;;;;;;;11.47;5.03;;;;;;;;;;5052094;28;20225;-90
2022/12/11 04:51:00;;;;;;;6.00;2.73;;;;;;;;;;5034370;28;20292;-93
2022/12/11 04:53:28;;;;;;;4.77;2.70;;;;;;;;;;5043807;28;20606;-95
2022/12/11 04:55:56;;;;;;;8.80;2.50;;;;;;;;;;5050473;28;20213;-95
2022/12/11 04:58:24;;;;;;;9.03;2.40;;;;;;;;;;5046705;28;20234;-93
2022/12/11 05:00:52;;;;;;;13.47;4.10;;;;;;;;;;5043281;28;20222;-93
2022/12/11 05:03:20;;;;;;;13.53;5.47;;;;;;;;;;5052019;28;20776;-95
2022/12/11 05:05:49;;;;;;;6.87;2.63;;;;;;;;;;5040547;28;20214;-96
2022/12/11 05:08:19;;;;;;;9.57;2.80;;;;;;;;;;5058997;28;20324;-94
2022/12/11 05:10:54;;;;;;;20.53;8.57;;;;;;;;;;5055854;28;20202;-93
2022/12/11 05:13:23;;;;;;;8.07;2.67;;;;;;;;;;5053431;28;20647;-95
2022/12/11 05:15:51;;;;;;;3.63;1.93;;;;;;;;;;5047374;28;20611;-92
2022/12/11 05:18:19;;;;;;;6.57;2.17;;;;;;;;;;5040233;28;20230;-94
2022/12/11 05:20:56;;;;;;;7.07;2.10;;;;;;;;;;5018095;28;20222;-95
2022/12/11 05:23:26;;;;;;;7.07;1.93;;;;;;;;;;5035565;28;20237;-93
2022/12/11 05:25:54;;;;;;;5.67;2.07;;;;;;;;;;5035412;28;20210;-92
2022/12/11 05:28:21;;;;;;;2.77;1.80;;;;;;;;;;5048976;28;20220;-95
2022/12/11 05:30:54;;;;;;;4.67;1.93;;;;;;;;;;5041129;28;20689;-91
2022/12/11 05:33:23;;;;;;;4.43;2.03;;;;;;;;;;5038415;28;20264;-91
2022/12/11 05:35:51;;;;;;;1.97;1.50;;;;;;;;;;5050329;28;20195;-90
2022/12/11 05:38:20;;;;;;;9.17;2.20;;;;;;;;;;5034895;28;20234;-91
2022/12/11 05:40:58;;;;;;;3.03;1.53;;;;;;;;;;5035231;28;20739;-91
2022/12/11 05:43:27;;;;;;;5.67;2.43;;;;;;;;;;5047204;28;20688;-90
2022/12/11 05:45:57;;;;;;;16.67;9.63;;;;;;;;;;5054962;28;20220;-91
2022/12/11 05:48:27;;;;;;;7.73;3.17;;;;;;;;;;5041725;28;20238;-90
2022/12/11 05:51:03;;;;;;;4.23;2.33;;;;;;;;;;5055174;28;20241;-92
2022/12/11 05:53:31;;;;;;;10.27;3.57;;;;;;;;;;5054412;28;20566;-90
2022/12/11 05:56:04;;;;;;;7.43;3.23;;;;;;;;;;5055329;28;20241;-92
2022/12/11 05:58:32;;;;;;;4.67;2.67;;;;;;;;;;5034670;28;20226;-91
2022/12/11 06:01:01;;;;;;;7.80;2.73;;;;;;;;;;5035044;28;20229;-90
2022/12/11 06:03:28;;;;;;;9.50;3.13;;;;;;;;;;5034620;28;20206;-90
2022/12/11 06:05:56;;;;;;;7.40;3.40;;;;;;;;;;5045760;28;20213;-92
2022/12/11 06:08:24;;;;;;;6.27;3.37;;;;;;;;;;5040711;28;20212;-92
2022/12/11 06:10:54;;;;;;;9.77;3.23;;;;;;;;;;5027907;28;20693;-94
2022/12/11 06:13:24;;;;;;;7.10;3.83;;;;;;;;;;5034531;28;20214;-91
2022/12/11 06:15:53;;;;;;;17.07;11.57;;;;;;;;;;5042674;28;20271;-92
2022/12/11 06:18:21;;;;;;;10.73;4.67;;;;;;;;;;5053092;28;20225;-89
2022/12/11 06:20:49;;;;;;;17.93;12.77;;;;;;;;;;5041507;28;20201;-90
2022/12/11 06:23:18;;;;;;;1.90;1.57;;;;;;;;;;5054369;28;20296;-91
2022/12/11 06:25:46;;;;;;;4.20;2.20;;;;;;;;;;5045004;28;20201;-91
2022/12/11 06:28:14;;;;;;;5.07;2.20;;;;;;;;;;5034562;28;20203;-95
2022/12/11 06:30:44;;;;;;;4.47;2.63;;;;;;;;;;5054002;28;20216;-92
2022/12/11 06:33:12;;;;;;;9.80;3.33;;;;;;;;;;5048428;28;20202;-92
2022/12/11 06:35:41;;;;;;;7.27;2.90;;;;;;;;;;5054033;28;20205;-92
2022/12/11 06:38:10;;;;;;;13.10;3.77;;;;;;;;;;5047663;28;20230;-91
2022/12/11 06:40:39;;;;;;;14.27;6.07;;;;;;;;;;5053658;28;20244;-90
2022/12/11 06:43:07;;;;;;;7.07;4.37;;;;;;;;;;5051867;28;20210;-92
2022/12/11 06:45:36;;;;;;;5.50;2.90;;;;;;;;;;5053189;28;20217;-92
2022/12/11 06:48:05;;;;;;;14.87;8.67;;;;;;;;;;5052642;28;20198;-94
2022/12/11 06:50:33;;;;;;;19.10;11.73;;;;;;;;;;5030432;28;20229;-95
2022/12/11 06:53:02;;;;;;;8.93;4.37;;;;;;;;;;5043389;28;20213;-92
2022/12/11 06:55:29;;;;;;;11.03;7.07;;;;;;;;;;5049467;28;20604;-88
2022/12/11 06:57:59;;;;;;;14.90;9.43;;;;;;;;;;5020963;28;20333;-87
2022/12/11 07:00:27;;;;;;;17.53;11.17;;;;;;;;;;5051885;28;20218;-85
2022/12/11 07:02:55;;;;;;;8.20;5.27;;;;;;;;;;5052562;28;20218;-87
2022/12/11 07:05:24;;;;;;;12.67;7.43;;;;;;;;;;5049629;28;20212;-92
2022/12/11 07:07:54;;;;;;;9.80;4.77;;;;;;;;;;5050477;28;20276;-90
2022/12/11 07:10:22;;;;;;;5.00;2.83;;;;;;;;;;5049210;28;20304;-91
2022/12/11 07:12:51;;;;;;;19.10;12.07;;;;;;;;;;5048918;28;20211;-91
2022/12/11 07:15:21;;;;;;;6.93;3.83;;;;;;;;;;5047145;28;20203;-93
2022/12/11 07:17:49;;;;;;;20.07;12.27;;;;;;;;;;5049341;28;20601;-90
2022/12/11 07:20:17;;;;;;;21.03;15.47;;;;;;;;;;5050322;28;20217;-91
2022/12/11 07:22:48;;;;;;;48.07;33.37;;;;;;;;;;5034147;28;20741;-93
2022/12/11 07:25:17;;;;;;;39.57;26.90;;;;;;;;;;5038680;28;20344;-90
2022/12/11 07:27:45;;;;;;;23.33;17.83;;;;;;;;;;5044311;28;20282;-93
2022/12/11 07:30:16;;;;;;;31.37;19.97;;;;;;;;;;5046390;28;20201;-93
2022/12/11 07:32:44;;;;;;;36.33;26.40;;;;;;;;;;5033377;28;20222;-93
2022/12/11 07:35:14;;;;;;;22.10;14.97;;;;;;;;;;5038099;28;20237;-93
2022/12/11 07:37:44;;;;;;;12.63;6.23;;;;;;;;;;5053057;28;20214;-94
2022/12/11 07:40:17;;;;;;;14.87;7.87;;;;;;;;;;5044981;28;20332;-95
2022/12/11 07:42:45;;;;;;;7.77;3.27;;;;;;;;;;5049483;28;20203;-93
2022/12/11 07:45:14;;;;;;;8.27;4.10;;;;;;;;;;5040470;28;20217;-93
2022/12/11 07:50:25;;;;;;;5.80;2.53;;;;;;;;;;5050117;28;20760;-90
2022/12/11 07:52:53;;;;;;;6.23;2.00;;;;;;;;;;5052213;28;20201;-92
2022/12/11 07:55:23;;;;;;;7.33;2.43;;;;;;;;;;5051378;28;20211;-91
2022/12/11 07:58:03;;;;;;;2.93;2.07;;;;;;;;;;5052138;28;20665;-93
2022/12/11 08:00:32;;;;;;;8.70;2.60;;;;;;;;;;5048532;28;20297;-92
2022/12/11 08:03:01;;;;;;;4.07;2.50;;;;;;;;;;5034523;28;20216;-93
2022/12/11 08:05:29;;;;;;;6.70;2.30;;;;;;;;;;5043199;28;20297;-93
2022/12/11 08:08:07;;;;;;;9.93;4.73;;;;;;;;;;5031879;28;20210;-93
2022/12/11 08:10:36;;;;;;;11.13;6.27;;;;;;;;;;5053430;28;20229;-92
2022/12/11 08:13:07;;;;;;;9.53;3.73;;;;;;;;;;5069302;28;20662;-92
2022/12/11 08:15:36;;;;;;;7.20;2.83;;;;;;;;;;5054952;28;20205;-93
2022/12/11 08:18:04;;;;;;;7.17;2.83;;;;;;;;;;5039514;28;20261;-94
2022/12/11 08:20:34;;;;;;;10.23;3.40;;;;;;;;;;5059727;28;20227;-92
2022/12/11 08:23:12;;;;;;;9.07;2.73;;;;;;;;;;5047020;28;20231;-93
2022/12/11 08:25:46;;;;;;;6.87;4.10;;;;;;;;;;5045335;28;20210;-94
2022/12/11 08:28:16;;;;;;;11.67;3.20;;;;;;;;;;5053900;28;20211;-93
2022/12/11 08:30:45;;;;;;;24.93;12.93;;;;;;;;;;5041041;28;20211;-93
2022/12/11 08:33:15;;;;;;;5.80;3.63;;;;;;;;;;5062244;28;20209;-94
2022/12/11 08:35:46;;;;;;;9.23;3.00;;;;;;;;;;5057498;28;20675;-94
2022/12/11 08:38:14;;;;;;;7.93;2.43;;;;;;;;;;5053761;28;20201;-93
2022/12/11 08:40:46;;;;;;;8.40;3.57;;;;;;;;;;5052787;28;20198;-95
2022/12/11 08:43:15;;;;;;;7.27;3.60;;;;;;;;;;5049768;28;20204;-94
2022/12/11 08:45:48;;;;;;;5.63;2.90;;;;;;;;;;5042338;28;20289;-95
2022/12/11 08:48:17;;;;;;;9.43;3.30;;;;;;;;;;5031860;28;20207;-94
2022/12/11 08:50:45;;;;;;;9.37;6.20;;;;;;;;;;5051468;28;20807;-95
2022/12/11 08:53:14;;;;;;;4.47;2.77;;;;;;;;;;5048908;28;20213;-96
2022/12/11 08:55:46;;;;;;;5.70;3.77;;;;;;;;;;5049921;28;20205;-94
2022/12/11 08:58:14;;;;;;;11.67;8.03;;;;;;;;;;5051484;28;20701;-95
2022/12/11 09:00:42;;;;;;;9.10;3.03;;;;;;;;;;5051059;28;20719;-92
2022/12/11 09:03:10;;;;;;;8.67;3.03;;;;;;;;;;5051924;28;20205;-93
2022/12/11 09:05:39;;;;;;;8.00;3.07;;;;;;;;;;5042566;28;20214;-92
2022/12/11 09:08:09;;;;;;;5.00;2.43;;;;;;;;;;5029282;28;20214;-92
2022/12/11 09:10:37;;;;;;;6.50;2.90;;;;;;;;;;5045360;28;20202;-94
2022/12/11 09:13:06;;;;;;;7.23;2.30;;;;;;;;;;5034737;28;20243;-94
2022/12/11 09:15:37;;;;;;;6.07;1.80;;;;;;;;;;5051767;28;20213;-93
2022/12/11 09:18:05;;;;;;;5.77;2.50;;;;;;;;;;5052728;28;20209;-92
2022/12/11 09:20:39;;;;;;;5.73;1.97;;;;;;;;;;5052892;28;20230;-93
2022/12/11 09:23:08;;;;;;;6.97;2.03;;;;;;;;;;5051757;28;20207;-92
2022/12/11 09:25:40;;;;;;;8.67;2.73;;;;;;;;;;5055213;28;20205;-93
2022/12/11 09:28:15;;;;;;;5.53;2.87;;;;;;;;;;5051056;28;20209;-94
2022/12/11 09:30:43;;;;;;;9.03;1.87;;;;;;;;;;5043515;28;20601;-92
2022/12/11 09:33:12;;;;;;;6.37;3.17;;;;;;;;;;5039798;28;20214;-93
2022/12/11 09:35:41;;;;;;;4.30;1.90;;;;;;;;;;5051960;28;20247;-93
2022/12/11 09:38:13;;;;;;;3.23;2.07;;;;;;;;;;5053885;28;20205;-95
2022/12/11 09:40:42;;;;;;;4.30;2.20;;;;;;;;;;5032188;28;20230;-93
2022/12/11 09:43:18;;;;;;;4.93;1.80;;;;;;;;;;5033709;28;20296;-91
2022/12/11 09:45:47;;;;;;;4.93;1.90;;;;;;;;;;5034696;28;20302;-92
2022/12/11 09:48:16;;;;;;;8.17;2.40;;;;;;;;;;5051351;28;20668;-92
2022/12/11 09:50:44;;;;;;;6.63;1.70;;;;;;;;;;5033186;28;20200;-94
2022/12/11 09:53:15;;;;;;;10.57;2.90;;;;;;;;;;5026082;28;20211;-92
2022/12/11 09:55:50;;;;;;;6.10;2.90;;;;;;;;;;5043341;28;20675;-92
2022/12/11 09:58:28;;;;;;;6.60;1.83;;;;;;;;;;5064646;28;20262;-93
2022/12/11 10:00:59;;;;;;;4.50;2.13;;;;;;;;;;5046701;28;20233;-92
2022/12/11 10:03:43;;;;;;;10.77;3.70;;;;;;;;;;5060213;28;20208;-92
2022/12/11 10:06:19;;;;;;;5.93;2.77;;;;;;;;;;5052052;28;20695;-93
2022/12/11 10:08:59;;;;;;;6.33;4.40;;;;;;;;;;5045154;28;20206;-93
2022/12/11 10:11:44;;;;;;;11.03;4.40;;;;;;;;;;5034869;28;20297;-92
2022/12/11 10:14:18;;;;;;;6.30;4.17;;;;;;;;;;5047117;28;20316;-90
2022/12/11 10:16:51;;;;;;;7.60;4.00;;;;;;;;;;5048031;28;20709;-90
2022/12/11 10:19:22;;;;;;;5.30;3.43;;;;;;;;;;5053831;28;20229;-90
2022/12/11 10:21:51;;;;;;;6.97;3.67;;;;;;;;;;5046454;28;20695;-89
2022/12/11 10:24:26;;;;;;;8.57;4.77;;;;;;;;;;5049732;28;20597;-95
2022/12/11 10:26:58;;;;;;;9.90;4.90;;;;;;;;;;5054560;28;20675;-94
2022/12/11 10:29:29;;;;;;;9.93;5.00;;;;;;;;;;5037729;28;20225;-94
2022/12/11 10:31:58;;;;;;;10.87;5.43;;;;;;;;;;5047994;28;20240;-96
2022/12/11 10:34:34;;;;;;;6.93;3.93;;;;;;;;;;5053379;28;20202;-95
2022/12/11 10:37:02;;;;;;;10.67;4.23;;;;;;;;;;5039765;28;20300;-95
2022/12/11 10:39:30;;;;;;;7.57;3.77;;;;;;;;;;5056880;28;20257;-94
2022/12/11 10:41:58;;;;;;;8.10;2.63;;;;;;;;;;5037519;28;20678;-95
2022/12/11 10:44:32;;;;;;;11.47;3.93;;;;;;;;;;5054884;28;20209;-94
2022/12/11 10:47:07;;;;;;;7.70;4.23;;;;;;;;;;5044466;28;20296;-96
2022/12/11 10:49:36;;;;;;;8.83;6.43;;;;;;;;;;5054673;28;20316;-96
2022/12/11 10:52:10;;;;;;;10.33;5.43;;;;;;;;;;5060214;28;20327;-95
2022/12/11 10:54:41;;;;;;;12.70;6.37;;;;;;;;;;5061711;28;20257;-95
2022/12/11 10:57:11;;;;;;;5.53;4.13;;;;;;;;;;5058931;28;20683;-94
2022/12/11 10:59:46;;;;;;;11.53;6.10;;;;;;;;;;5048846;28;20224;-96
2022/12/11 11:02:24;;;;;;;9.67;5.27;;;;;;;;;;5035349;28;20231;-95
2022/12/11 11:04:53;;;;;;;17.03;10.80;;;;;;;;;;5035496;28;20629;-95
2022/12/11 11:07:22;;;;;;;11.60;9.47;;;;;;;;;;5033733;28;20220;-95
2022/12/11 11:09:53;;;;;;;8.70;4.50;;;;;;;;;;5039332;28;20661;-95
2022/12/11 11:12:25;;;;;;;7.00;3.60;;;;;;;;;;5035865;28;20209;-95
2022/12/11 11:15:11;;;;;;;9.70;3.37;;;;;;;;;;5052930;28;20681;-91
2022/12/11 11:17:44;;;;;;;11.97;4.67;;;;;;;;;;5030258;28;20271;-92
2022/12/11 11:20:15;;;;;;;9.23;3.03;;;;;;;;;;5050631;28;20222;-92
2022/12/11 11:22:45;;;;;;;12.77;3.83;;;;;;;;;;5047691;28;20669;-93
2022/12/11 11:25:18;;;;;;;9.60;5.20;;;;;;;;;;5052885;28;20211;-92
2022/12/11 11:27:54;;;;;;;15.87;6.63;;;;;;;;;;5047955;28;20292;-93
2022/12/11 11:30:27;;;;;;;14.87;6.30;;;;;;;;;;5047163;28;20677;-92
2022/12/11 11:32:56;;;;;;;13.07;8.83;;;;;;;;;;5053233;28;20210;-91
2022/12/11 11:35:25;;;;;;;19.57;10.33;;;;;;;;;;5051480;28;20214;-91
2022/12/11 11:38:03;;;;;;;17.70;7.87;;;;;;;;;;5052890;28;20859;-91
2022/12/11 11:40:31;;;;;;;11.63;5.73;;;;;;;;;;5051868;28;20253;-91
2022/12/11 11:43:07;;;;;;;10.57;3.30;;;;;;;;;;5035422;28;20263;-91
2022/12/11 11:45:39;;;;;;;11.57;5.27;;;;;;;;;;5033250;28;20217;-90
2022/12/11 11:48:16;;;;;;;15.83;5.97;;;;;;;;;;5045293;28;20209;-90
2022/12/11 11:50:45;;;;;;;14.03;6.50;;;;;;;;;;5051832;28;20215;-91
2022/12/11 11:53:16;;;;;;;15.03;7.07;;;;;;;;;;5052268;28;20740;-91
2022/12/11 11:55:50;;;;;;;20.93;11.90;;;;;;;;;;5042268;28;20277;-90
2022/12/11 11:58:21;;;;;;;8.27;5.50;;;;;;;;;;5046789;28;20204;-90
2022/12/11 12:00:50;;;;;;;35.00;17.33;;;;;;;;;;5043200;28;20229;-90
2022/12/11 12:03:20;;;;;;;29.40;14.87;;;;;;;;;;5052829;28;20204;-91
2022/12/11 12:05:54;;;;;;;15.03;7.67;;;;;;;;;;5053184;28;20223;-90
2022/12/11 12:08:29;;;;;;;19.80;9.63;;;;;;;;;;5038311;28;20661;-90
2022/12/11 12:11:01;;;;;;;6.53;4.20;;;;;;;;;;5052045;28;20217;-92
2022/12/11 12:13:32;;;;;;;11.27;5.90;;;;;;;;;;5017834;28;20209;-87
2022/12/11 12:16:04;;;;;;;16.17;6.90;;;;;;;;;;5042335;28;20206;-90
2022/12/11 12:18:35;;;;;;;10.50;3.90;;;;;;;;;;5035995;28;20206;-90
2022/12/11 12:21:08;;;;;;;10.43;4.83;;;;;;;;;;5032401;28;20313;-89
2022/12/11 12:23:45;;;;;;;12.50;4.37;;;;;;;;;;5048588;28;20214;-90
2022/12/11 12:26:17;;;;;;;11.17;4.40;;;;;;;;;;5051903;28;20208;-90
2022/12/11 12:28:52;;;;;;;10.20;4.07;;;;;;;;;;5052169;28;20675;-89
2022/12/11 12:31:36;;;;;;;9.67;3.67;;;;;;;;;;5052831;28;20210;-89
2022/12/11 12:34:10;;;;;;;9.30;4.67;;;;;;;;;;5034593;28;20243;-90
2022/12/11 12:36:42;;;;;;;10.63;5.53;;;;;;;;;;5032876;28;20220;-90
2022/12/11 12:39:17;;;;;;;5.97;3.67;;;;;;;;;;5033081;28;20213;-90
2022/12/11 12:41:50;;;;;;;15.00;4.53;;;;;;;;;;5052576;28;20235;-89
2022/12/11 12:44:18;;;;;;;10.93;2.77;;;;;;;;;;5048401;28;20213;-90
2022/12/11 12:46:56;;;;;;;8.57;4.13;;;;;;;;;;5044984;28;20208;-89
2022/12/11 12:49:39;;;;;;;11.60;4.43;;;;;;;;;;5046260;28;20212;-90
2022/12/11 12:52:14;;;;;;;9.03;3.40;;;;;;;;;;5030088;28;20233;-90
2022/12/11 12:55:12;;;;;;;10.23;3.43;;;;;;;;;;5031713;28;20217;-89
2022/12/11 12:57:30;;;;;;;12.57;4.53;;;;;;;;;;5043516;28;20205;-90
2022/12/11 12:59:57;;;;;;;17.10;11.23;;;;;;;;;;5052277;28;21046;-90
2022/12/11 13:02:25;;;;;;;14.50;5.50;;;;;;;;;;5052291;28;20272;-89
2022/12/11 13:04:57;;;;;;;10.93;5.33;;;;;;;;;;5037865;28;20237;-90
2022/12/11 13:07:28;;;;;;;9.73;4.20;;;;;;;;;;5052781;28;20208;-89
2022/12/11 13:09:58;;;;;;;7.13;4.40;;;;;;;;;;5050405;28;20594;-90
2022/12/11 13:12:33;;;;;;;7.73;2.90;;;;;;;;;;5032369;28;20207;-90
2022/12/11 13:15:00;;;;;;;7.93;4.43;;;;;;;;;;5047641;28;20233;-90
2022/12/11 13:17:38;;;;;;;12.20;6.83;;;;;;;;;;5051579;28;20204;-89
2022/12/11 13:20:17;;;;;;;9.93;6.93;;;;;;;;;;5051991;28;20235;-90
2022/12/11 13:22:49;;;;;;;5.67;3.37;;;;;;;;;;5052225;28;20204;-90
2022/12/11 13:25:29;;;;;;;11.63;7.50;;;;;;;;;;5039327;28;20207;-89
2022/12/11 13:28:05;;;;;;;13.07;5.87;;;;;;;;;;5055446;28;20214;-90
2022/12/11 13:30:32;;;;;;;10.77;5.70;;;;;;;;;;5055749;28;20209;-90
2022/12/11 13:33:05;;;;;;;15.53;9.83;;;;;;;;;;5055715;28;20210;-89
2022/12/11 13:35:33;;;;;;;7.13;3.27;;;;;;;;;;5055501;28;20206;-90
2022/12/11 13:38:05;;;;;;;6.53;4.77;;;;;;;;;;5054857;28;20701;-93
2022/12/11 13:40:38;;;;;;;69.67;39.50;;;;;;;;;;5055285;28;20233;-90
2022/12/11 13:43:06;;;;;;;20.43;13.07;;;;;;;;;;5051428;28;20245;-90
2022/12/11 13:45:40;;;;;;;11.80;5.13;;;;;;;;;;5053343;28;20214;-90
2022/12/11 13:48:19;;;;;;;7.60;2.70;;;;;;;;;;5050663;28;20233;-89
2022/12/11 13:50:47;;;;;;;3.33;2.43;;;;;;;;;;5052671;28;20202;-90
2022/12/11 13:53:16;;;;;;;5.80;3.03;;;;;;;;;;5038720;28;20205;-88
2022/12/11 13:55:46;;;;;;;9.23;3.83;;;;;;;;;;5053525;28;20221;-87
2022/12/11 13:58:21;;;;;;;7.17;3.03;;;;;;;;;;5052729;28;20630;-89
2022/12/11 14:01:06;;;;;;;4.13;2.03;;;;;;;;;;5054179;28;20644;-89
2022/12/11 14:03:40;;;;;;;10.43;2.77;;;;;;;;;;5047948;28;20215;-88
2022/12/11 14:06:10;;;;;;;15.07;5.97;;;;;;;;;;5033953;28;20654;-89
2022/12/11 14:08:43;;;;;;;9.40;4.30;;;;;;;;;;5034612;28;20608;-88
2022/12/11 14:11:21;;;;;;;10.80;4.37;;;;;;;;;;5050310;28;20647;-89
2022/12/11 14:13:52;;;;;;;11.50;7.03;;;;;;;;;;5051042;28;20688;-88
2022/12/11 14:16:22;;;;;;;4.03;3.33;;;;;;;;;;5044033;28;20691;-88
2022/12/11 14:18:53;;;;;;;6.20;3.83;;;;;;;;;;5039454;28;20210;-88
2022/12/11 14:21:22;;;;;;;8.90;5.67;;;;;;;;;;5053446;28;20237;-88
2022/12/11 14:23:52;;;;;;;14.03;10.13;;;;;;;;;;5050651;28;20209;-88
2022/12/11 14:26:21;;;;;;;9.57;8.57;;;;;;;;;;5051713;28;20233;-89
2022/12/11 14:28:50;;;;;;;42.83;23.77;;;;;;;;;;5035584;28;20276;-90
2022/12/11 14:31:28;;;;;;;8.30;7.37;;;;;;;;;;5052398;28;20631;-89
2022/12/11 14:34:01;;;;;;;9.47;6.33;;;;;;;;;;5061418;28;20636;-90
2022/12/11 14:36:30;;;;;;;15.27;13.73;;;;;;;;;;5045391;28;20202;-87
2022/12/11 14:39:01;;;;;;;5.60;2.20;;;;;;;;;;5018810;28;20259;-89
2022/12/11 14:41:36;;;;;;;4.77;2.43;;;;;;;;;;5053183;28;20222;-88
2022/12/11 14:44:06;;;;;;;2.20;2.00;;;;;;;;;;5041639;28;20260;-90
2022/12/11 14:46:38;;;;;;;9.00;3.77;;;;;;;;;;5033832;28;20214;-91
2022/12/11 14:49:15;;;;;;;4.00;3.63;;;;;;;;;;5045770;28;20209;-90
2022/12/11 14:51:47;;;;;;;17.80;11.90;;;;;;;;;;5048686;28;20257;-91
2022/12/11 14:54:27;;;;;;;15.07;12.20;;;;;;;;;;5040961;28;20267;-90
2022/12/11 14:56:55;;;;;;;6.33;3.67;;;;;;;;;;5036314;28;20610;-89
2022/12/11 14:59:26;;;;;;;4.20;2.23;;;;;;;;;;5053562;28;20263;-90
2022/12/11 15:02:01;;;;;;;5.47;3.27;;;;;;;;;;5053199;28;20222;-90
2022/12/11 15:04:33;;;;;;;7.40;5.67;;;;;;;;;;5053581;28;20205;-90
2022/12/11 15:07:01;;;;;;;7.07;3.43;;;;;;;;;;5047887;28;20226;-90
2022/12/11 15:09:35;;;;;;;5.10;2.70;;;;;;;;;;5045494;28;20213;-90
2022/12/11 15:12:10;;;;;;;7.00;5.43;;;;;;;;;;5032407;28;20230;-89
2022/12/11 15:14:43;;;;;;;8.40;2.97;;;;;;;;;;5052334;28;20201;-96
2022/12/11 15:17:14;;;;;;;9.37;4.17;;;;;;;;;;5021746;28;20651;-88